Map

Track Data

SID SEASON NUMBER BASIN SUBBASIN NAME ISO_TIME NATURE LAT LON WMO_WIND WMO_PRES WMO_AGENCY TRACK_TYPE DIST2LAND LANDFALL IFLAG USA_AGENCY USA_ATCF_ID USA_LAT USA_LON USA_RECORD USA_STATUS USA_WIND USA_PRES USA_SSHS USA_R34_NE USA_R34_SE USA_R34_SW USA_R34_NW USA_R50_NE USA_R50_SE USA_R50_SW USA_R50_NW USA_R64_NE USA_R64_SE USA_R64_SW USA_R64_NW USA_POCI USA_ROCI USA_RMW USA_EYE TOKYO_LAT TOKYO_LON TOKYO_GRADE TOKYO_WIND TOKYO_PRES TOKYO_R50_DIR TOKYO_R50_LONG TOKYO_R50_SHORT TOKYO_R30_DIR TOKYO_R30_LONG TOKYO_R30_SHORT TOKYO_LAND CMA_LAT CMA_LON CMA_CAT CMA_WIND CMA_PRES HKO_LAT HKO_LON HKO_CAT HKO_WIND HKO_PRES NEWDELHI_LAT NEWDELHI_LON NEWDELHI_GRADE NEWDELHI_WIND NEWDELHI_PRES NEWDELHI_CI NEWDELHI_DP NEWDELHI_POCI REUNION_LAT REUNION_LON REUNION_TYPE REUNION_WIND REUNION_PRES REUNION_TNUM REUNION_CI REUNION_RMW REUNION_R34_NE REUNION_R34_SE REUNION_R34_SW REUNION_R34_NW REUNION_R50_NE REUNION_R50_SE REUNION_R50_SW REUNION_R50_NW REUNION_R64_NE REUNION_R64_SE REUNION_R64_SW REUNION_R64_NW BOM_LAT BOM_LON BOM_TYPE BOM_WIND BOM_PRES BOM_TNUM BOM_CI BOM_RMW BOM_R34_NE BOM_R34_SE BOM_R34_SW BOM_R34_NW BOM_R50_NE BOM_R50_SE BOM_R50_SW BOM_R50_NW BOM_R64_NE BOM_R64_SE BOM_R64_SW BOM_R64_NW BOM_ROCI BOM_POCI BOM_EYE BOM_POS_METHOD BOM_PRES_METHOD NADI_LAT NADI_LON NADI_CAT NADI_WIND NADI_PRES WELLINGTON_LAT WELLINGTON_LON WELLINGTON_WIND WELLINGTON_PRES DS824_LAT DS824_LON DS824_STAGE DS824_WIND DS824_PRES TD9636_LAT TD9636_LON TD9636_STAGE TD9636_WIND TD9636_PRES TD9635_LAT TD9635_LON TD9635_WIND TD9635_PRES TD9635_ROCI NEUMANN_LAT NEUMANN_LON NEUMANN_CLASS NEUMANN_WIND NEUMANN_PRES MLC_LAT MLC_LON MLC_CLASS MLC_WIND MLC_PRES USA_GUST BOM_GUST BOM_GUST_PER REUNION_GUST REUNION_GUST_PER USA_SEAHGT USA_SEARAD_NE USA_SEARAD_SE USA_SEARAD_SW USA_SEARAD_NW STORM_SPEED STORM_DIR
1956282N18071 1956 97 NI AS NOT_NAMED 1956-10-07 18:00:00 TS 17.7000 71.3000 main 178 175 O________O____ jtwc_io IO131956 17.7000 71.3000 -1 17.7000 71.3000 TC 6 329
1956282N18071 1956 97 NI AS NOT_NAMED 1956-10-07 21:00:00 TS 17.9701 71.1302 main 191 190 P________P____ IO131956 17.9701 71.1302 -1 17.9701 71.1302 TC 6 330
1956282N18071 1956 97 NI AS NOT_NAMED 1956-10-08 00:00:00 TS 18.2000 71.0000 main 200 200 O________O____ jtwc_io IO131956 18.2000 71.0000 -1 18.2000 71.0000 TC 25 4 334
1956282N18071 1956 97 NI AS NOT_NAMED 1956-10-08 03:00:00 TS 18.3689 70.9310 main 207 205 P________PO___ IO131956 18.3650 70.9349 -1 18.3650 70.9349 TC 25 18.4000 70.9000 1 3 342
1956282N18071 1956 97 NI AS NOT_NAMED 1956-10-08 06:00:00 TS 18.5084 70.8965 main 205 201 O________OP___ jtwc_io IO131956 18.5000 70.9000 -1 18.5000 70.9000 TC 25 18.5422 70.8827 1 3 345
1956282N18071 1956 97 NI AS NOT_NAMED 1956-10-08 09:00:00 TS 18.6630 70.8479 main 211 210 P________PP___ IO131956 18.6575 70.8425 -1 18.6575 70.8425 TC 25 18.6776 70.8623 1 3 345
1956282N18071 1956 97 NI AS NOT_NAMED 1956-10-08 12:00:00 TS 18.7997 70.8119 main 210 201 O________OP___ jtwc_io IO131956 18.8000 70.8000 -1 18.8000 70.8000 TC 25 18.7991 70.8358 1 2 348
1956282N18071 1956 97 NI AS NOT_NAMED 1956-10-08 15:00:00 TS 18.9050 70.7950 main 201 190 P________PO___ IO131956 18.9075 70.7925 -1 18.9075 70.7925 TC 25 18.9000 70.8000 1 2 355
1956282N18071 1956 97 NI AS NOT_NAMED 1956-10-08 18:00:00 TS 18.9929 70.7855 main 190 178 O________OP___ jtwc_io IO131956 19.0000 70.8000 -1 19.0000 70.8000 TC 25 18.9787 70.7566 1 2 351
1956282N18071 1956 97 NI AS NOT_NAMED 1956-10-08 21:00:00 TS 19.0799 70.7702 main 178 167 P________PP___ IO131956 19.0925 70.7925 -1 19.0925 70.7925 TC 25 19.0548 70.7255 1 2 0
1956282N18071 1956 97 NI AS NOT_NAMED 1956-10-09 00:00:00 TS 19.1845 70.7772 main 167 156 O________OP___ jtwc_io IO131956 19.2000 70.8000 -1 19.2000 70.8000 TC 25 19.1536 70.7317 1 2 11
1956282N18071 1956 97 NI AS NOT_NAMED 1956-10-09 03:00:00 TS 19.3133 70.8035 main 156 134 P________PO___ IO131956 19.3199 70.8052 -1 19.3199 70.8052 TC 25 19.3000 70.8000 1 4 23
1956282N18071 1956 97 NI AS NOT_NAMED 1956-10-09 06:00:00 TS 19.5097 70.9226 main 134 108 O________OP___ jtwc_io IO131956 19.5000 70.9000 -1 19.5000 70.9000 TC 25 19.5290 70.9679 1 6 37
1956282N18071 1956 97 NI AS NOT_NAMED 1956-10-09 09:00:00 TS 19.7919 71.1838 main 108 84 P________PP___ IO131956 19.7852 71.1772 -1 19.7852 71.1772 TC 25 19.8053 71.1968 1 8 42
1956282N18071 1956 97 NI AS NOT_NAMED 1956-10-09 12:00:00 TS 20.1013 71.4841 main 88 64 O________OP___ jtwc_io IO131956 20.1000 71.5000 -1 20.1000 71.5000 TC 25 20.1040 71.4523 1 8 40
1956282N18071 1956 97 NI AS NOT_NAMED 1956-10-09 15:00:00 TS 20.3816 71.7151 main 64 53 P________PO___ IO131956 20.3724 71.7226 -1 20.3724 71.7226 TC 25 20.4000 71.7000 1 6 37
1956282N18071 1956 97 NI AS NOT_NAMED 1956-10-09 18:00:00 TS 20.5918 71.8823 main 56 49 O________OP___ jtwc_io IO131956 20.6000 71.9000 -1 20.6000 71.9000 TC 25 20.5754 71.8470 1 4 41
1956282N18071 1956 97 NI AS NOT_NAMED 1956-10-09 21:00:00 TS 20.7172 72.0241 main 49 33 P________PP___ IO131956 20.6974 72.0430 -1 20.6974 72.0430 TC 25 20.7567 71.9863 1 4 39
1956282N18071 1956 97 NI AS NOT_NAMED 1956-10-10 00:00:00 TS 20.9365 72.1857 main 35 15 O________OP___ jtwc_io IO131956 20.9000 72.2000 -1 20.9000 72.2000 TC 25 21.0096 72.1572 1 8 27
1956282N18071 1956 97 NI AS NOT_NAMED 1956-10-10 03:00:00 TS 21.4065 72.3938 main 20 0 P________PO___ IO131956 21.4098 72.3906 -1 21.4098 72.3906 TC 25 21.4000 72.4000 1 12 24
1956282N18071 1956 97 NI AS NOT_NAMED 1956-10-10 06:00:00 TS 22.0692 72.7361 main 0 0 O________OP___ jtwc_io IO131956 22.1000 72.7000 -1 22.1000 72.7000 TC 25 22.0075 72.8083 1 16 30
1956282N18071 1956 97 NI AS NOT_NAMED 1956-10-10 09:00:00 TS 22.8026 73.2521 main 0 0 P________PP___ IO131956 22.8280 73.2342 -1 22.8280 73.2342 TC 25 22.7519 73.2878 1 18 33
1956282N18071 1956 97 NI AS NOT_NAMED 1956-10-10 12:00:00 TS 23.5901 73.7913 main 0 0 O________OP___ jtwc_io IO131956 23.6000 73.8000 -1 23.6000 73.8000 TC 25 23.5702 73.7739 1 18 29
1956282N18071 1956 97 NI AS NOT_NAMED 1956-10-10 15:00:00 TS 24.3615 74.2020 main 0 0 P________PO___ IO131956 24.3423 74.2030 -1 24.3423 74.2030 TC 25 24.4000 74.2000 1 17 23
1956282N18071 1956 97 NI AS NOT_NAMED 1956-10-10 18:00:00 TS 25.1370 74.5056 main 0 0 O________OP___ jtwc_io IO131956 25.1000 74.5000 -1 25.1000 74.5000 TC 25 25.1925 74.5139 1 16 17
1956282N18071 1956 97 NI AS NOT_NAMED 1956-10-10 21:00:00 TS 25.9150 74.7241 main 0 0 P________PP___ IO131956 25.8901 74.7195 -1 25.8901 74.7195 TC 25 25.9483 74.7303 1 16 13
1956282N18071 1956 97 NI AS NOT_NAMED 1956-10-11 00:00:00 TS 26.6901 74.8907 main 0 0 O________OP___ jtwc_io IO131956 26.7000 74.9000 -1 26.7000 74.9000 TC 25 26.6801 74.8813 1 15 9
1956282N18071 1956 97 NI AS NOT_NAMED 1956-10-11 03:00:00 NR 27.4000 75.0000 main 0 __________O___ IO131956 -1 TC 27.4000 75.0000 1 14 8

About IBTrACS Database

This database is a web-friendly format of International Best Track Archive for Climate Stewardship (IBTrACS), a global best track data archive curated by NOAA dating back to 1842.

Updated: 2021-12-08